Time;durP1;ratioP1;P1;durP2;ratioP2;P2;SDS_P1;SDS_P2;PMS_P1;PMS_P2;Temp;Humidity;BMP_temperature;BMP_pressure;BME280_temperature;BME280_humidity;BME280_pressure;Samples;Min_cycle;Max_cycle;Signal;HPM_P1;HPM_P2
2021/10/05 00:00:14;;;;;;;5.17;2.73;;;14.20;99.90;;;;;;5094561;28;20647;-71
2021/10/05 00:02:39;;;;;;;3.40;2.80;;;14.20;99.90;;;;;;5094360;28;20177;-71
2021/10/05 00:05:06;;;;;;;2.70;2.30;;;14.20;99.90;;;;;;5093940;28;20181;-71
2021/10/05 00:07:31;;;;;;;3.93;2.90;;;14.20;99.90;;;;;;5094290;28;20178;-71
2021/10/05 00:09:57;;;;;;;4.20;2.53;;;14.20;99.90;;;;;;5094253;28;20411;-71
2021/10/05 00:12:23;;;;;;;2.13;1.93;;;14.20;99.90;;;;;;5094052;28;20212;-71
2021/10/05 00:14:50;;;;;;;4.33;2.50;;;14.20;99.90;;;;;;5094006;28;20169;-72
2021/10/05 00:17:17;;;;;;;3.47;2.20;;;14.20;99.90;;;;;;5094341;28;20439;-71
2021/10/05 00:19:43;;;;;;;3.00;2.27;;;14.20;99.90;;;;;;5094117;28;20848;-71
2021/10/05 00:22:08;;;;;;;2.03;1.93;;;14.20;99.90;;;;;;5094133;28;20483;-72
2021/10/05 00:24:34;;;;;;;2.27;2.07;;;14.20;99.90;;;;;;5093713;28;20179;-71
2021/10/05 00:26:59;;;;;;;2.90;2.23;;;14.20;99.90;;;;;;5093043;28;20232;-71
2021/10/05 00:29:25;;;;;;;2.80;2.17;;;14.20;99.90;;;;;;5073828;28;20220;-72
2021/10/05 00:31:50;;;;;;;3.17;2.20;;;14.20;99.90;;;;;;5073661;28;20689;-72
2021/10/05 00:34:16;;;;;;;6.20;2.70;;;14.20;99.90;;;;;;5085711;28;20189;-72
2021/10/05 00:36:42;;;;;;;2.40;2.20;;;14.20;99.90;;;;;;5093652;28;20182;-71
2021/10/05 00:39:08;;;;;;;2.33;2.13;;;14.20;99.90;;;;;;5094108;28;20592;-72
2021/10/05 00:41:34;;;;;;;2.93;2.60;;;14.20;99.90;;;;;;5093833;28;20408;-71
2021/10/05 00:44:00;;;;;;;3.37;2.30;;;14.20;99.90;;;;;;5093777;28;20565;-71
2021/10/05 00:46:27;;;;;;;5.10;3.43;;;14.20;99.90;;;;;;5093706;28;20760;-71
2021/10/05 00:48:53;;;;;;;2.47;2.27;;;14.20;99.90;;;;;;5093776;28;20414;-71
2021/10/05 00:51:19;;;;;;;2.30;2.10;;;14.20;99.90;;;;;;5093593;28;20411;-72
2021/10/05 00:53:45;;;;;;;3.00;2.23;;;14.20;99.90;;;;;;5093426;28;20447;-72
2021/10/05 00:56:11;;;;;;;2.13;1.93;;;14.20;99.90;;;;;;5093330;28;20511;-72
2021/10/05 00:58:38;;;;;;;2.80;2.17;;;14.10;99.90;;;;;;5093234;28;20166;-72
2021/10/05 01:01:04;;;;;;;3.43;2.17;;;14.10;99.90;;;;;;5093110;28;20177;-72
2021/10/05 01:03:29;;;;;;;3.40;1.73;;;14.20;99.90;;;;;;5093087;28;20411;-72
2021/10/05 01:05:54;;;;;;;3.30;2.33;;;14.20;99.90;;;;;;5093110;28;20186;-72
2021/10/05 01:08:21;;;;;;;2.57;2.37;;;14.20;99.90;;;;;;5093064;28;20177;-71
2021/10/05 01:10:46;;;;;;;2.73;2.00;;;14.20;99.90;;;;;;5093251;28;20176;-71
2021/10/05 01:13:12;;;;;;;3.37;1.77;;;14.20;99.90;;;;;;5093024;28;20448;-71
2021/10/05 01:15:37;;;;;;;1.87;1.60;;;14.10;99.90;;;;;;5092847;28;20196;-72
2021/10/05 01:18:03;;;;;;;2.23;1.70;;;14.10;99.90;;;;;;5087739;28;20189;-71
2021/10/05 01:20:28;;;;;;;4.37;1.87;;;14.10;99.90;;;;;;5092404;28;20644;-71
2021/10/05 01:22:54;;;;;;;2.47;1.40;;;14.10;99.90;;;;;;5092673;28;20662;-71
2021/10/05 01:25:20;;;;;;;2.10;1.73;;;14.20;99.90;;;;;;5092580;28;20194;-72
2021/10/05 01:27:52;;;;;;;3.70;1.87;;;14.20;99.90;;;;;;5092638;28;20211;-71
2021/10/05 01:30:20;;;;;;;3.10;1.57;;;14.20;99.90;;;;;;5089417;28;20426;-71
2021/10/05 01:32:46;;;;;;;4.10;2.27;;;14.10;99.90;;;;;;5092259;28;20448;-72
2021/10/05 01:35:12;;;;;;;1.80;1.50;;;14.20;99.90;;;;;;5092820;28;20748;-71
2021/10/05 01:37:38;;;;;;;2.03;1.50;;;14.20;99.90;;;;;;5093061;28;20406;-72
2021/10/05 01:40:07;;;;;;;2.10;1.90;;;14.10;99.90;;;;;;5093074;28;20415;-71
2021/10/05 01:42:33;;;;;;;5.63;1.80;;;14.10;99.90;;;;;;5093288;28;20410;-72
2021/10/05 01:44:58;;;;;;;2.80;1.97;;;14.10;99.90;;;;;;5094695;28;20404;-72
2021/10/05 01:47:24;;;;;;;1.93;1.83;;;14.10;99.90;;;;;;5093718;28;20240;-71
2021/10/05 01:49:49;;;;;;;2.40;1.73;;;14.10;99.90;;;;;;5092341;28;20180;-71
2021/10/05 01:52:15;;;;;;;3.00;1.40;;;14.10;99.90;;;;;;5092169;28;20196;-71
2021/10/05 01:54:41;;;;;;;2.70;1.20;;;14.10;99.90;;;;;;5091860;28;20211;-71
2021/10/05 01:57:06;;;;;;;2.33;1.80;;;14.00;99.90;;;;;;5091981;28;20962;-70
2021/10/05 01:59:32;;;;;;;1.57;1.47;;;14.00;99.90;;;;;;5091895;28;20300;-70
2021/10/05 02:01:58;;;;;;;1.57;1.20;;;14.00;99.90;;;;;;5091940;28;20161;-72
2021/10/05 02:04:23;;;;;;;1.70;1.30;;;14.00;99.90;;;;;;5091868;28;20170;-71
2021/10/05 02:06:49;;;;;;;1.60;1.40;;;14.00;99.90;;;;;;5090644;28;20671;-71
2021/10/05 02:09:15;;;;;;;1.20;1.10;;;14.00;99.90;;;;;;5091807;28;20173;-71
2021/10/05 02:11:40;;;;;;;4.90;1.60;;;14.00;99.90;;;;;;5091099;28;20177;-72
2021/10/05 02:14:06;;;;;;;1.30;1.13;;;14.00;99.90;;;;;;5091431;28;20455;-72
2021/10/05 02:16:33;;;;;;;1.60;1.23;;;14.00;99.90;;;;;;5091600;28;20201;-72
2021/10/05 02:18:59;;;;;;;2.40;1.57;;;14.00;99.90;;;;;;5091786;28;20399;-72
2021/10/05 02:21:24;;;;;;;3.13;1.70;;;14.00;99.90;;;;;;5091743;28;20404;-72
2021/10/05 02:26:34;;;;;;;6.00;1.93;;;14.00;99.90;;;;;;5091975;28;20200;-72
2021/10/05 02:29:00;;;;;;;1.37;1.10;;;14.00;99.90;;;;;;5091615;28;20765;-72
2021/10/05 02:31:27;;;;;;;1.50;1.10;;;14.00;99.90;;;;;;5091540;28;20251;-71
2021/10/05 02:33:52;;;;;;;1.57;1.47;;;14.00;99.90;;;;;;5091449;28;20462;-71
2021/10/05 02:36:18;;;;;;;1.40;1.20;;;14.00;99.90;;;;;;5091387;28;20855;-72
2021/10/05 02:38:44;;;;;;;1.23;1.13;;;13.90;99.90;;;;;;5091692;28;20175;-71
2021/10/05 02:41:09;;;;;;;1.37;1.27;;;13.90;99.90;;;;;;5091486;28;20400;-71
2021/10/05 02:43:35;;;;;;;4.10;1.50;;;13.90;99.90;;;;;;5091419;28;20177;-71
2021/10/05 02:46:00;;;;;;;2.00;1.10;;;13.90;99.90;;;;;;5091388;28;20618;-71
2021/10/05 02:48:26;;;;;;;1.10;1.00;;;13.90;99.90;;;;;;5091879;28;20257;-72
2021/10/05 02:50:51;;;;;;;1.27;1.00;;;13.90;99.90;;;;;;5091267;28;20562;-71
2021/10/05 02:53:16;;;;;;;1.43;1.20;;;13.90;99.90;;;;;;5091180;28;20232;-71
2021/10/05 02:55:43;;;;;;;2.37;1.10;;;13.90;99.90;;;;;;5091306;28;20193;-69
2021/10/05 02:58:09;;;;;;;2.93;1.60;;;13.90;99.90;;;;;;5091613;28;20648;-69
2021/10/05 03:00:35;;;;;;;1.20;1.10;;;13.90;99.90;;;;;;5091385;28;20395;-69
2021/10/05 03:03:00;;;;;;;1.20;0.83;;;13.90;99.90;;;;;;5091782;28;20403;-71
2021/10/05 03:05:26;;;;;;;2.00;0.90;;;13.90;99.90;;;;;;5091062;28;20907;-71
2021/10/05 03:07:51;;;;;;;0.80;0.77;;;13.90;99.90;;;;;;5091428;28;20170;-71
2021/10/05 03:10:17;;;;;;;1.20;1.10;;;13.90;99.90;;;;;;5091333;28;20234;-71
2021/10/05 03:12:43;;;;;;;2.30;1.47;;;13.90;99.90;;;;;;5091148;28;20200;-69
2021/10/05 03:15:09;;;;;;;1.93;1.07;;;13.90;99.90;;;;;;5091170;28;20161;-70
2021/10/05 03:17:34;;;;;;;2.10;0.97;;;13.90;99.90;;;;;;5091199;28;20220;-71
2021/10/05 03:20:00;;;;;;;1.10;1.00;;;13.90;99.90;;;;;;5091192;28;20797;-70
2021/10/05 03:22:25;;;;;;;1.30;0.93;;;13.90;99.90;;;;;;5092434;28;20166;-69
2021/10/05 03:24:51;;;;;;;1.00;1.00;;;13.90;99.90;;;;;;5095180;28;20166;-69
2021/10/05 03:27:16;;;;;;;1.23;0.80;;;13.80;99.90;;;;;;5095145;28;20629;-69
2021/10/05 03:29:42;;;;;;;2.60;1.00;;;13.80;99.90;;;;;;5094307;28;20644;-71
2021/10/05 03:32:08;;;;;;;1.23;0.90;;;13.80;99.90;;;;;;5094853;28;20627;-69
2021/10/05 03:34:33;;;;;;;1.83;1.00;;;13.80;99.90;;;;;;5093937;28;20625;-70
2021/10/05 03:36:59;;;;;;;1.47;1.17;;;13.80;99.90;;;;;;5094864;28;20461;-69
2021/10/05 03:39:25;;;;;;;0.80;0.70;;;13.80;99.90;;;;;;5094874;28;20197;-69
2021/10/05 03:41:51;;;;;;;1.50;1.00;;;13.70;99.90;;;;;;5094566;28;20237;-69
2021/10/05 03:44:16;;;;;;;1.23;1.00;;;13.70;99.90;;;;;;5094784;28;20438;-69
2021/10/05 03:46:42;;;;;;;4.20;0.90;;;13.60;99.90;;;;;;5094718;28;20720;-69
2021/10/05 03:49:07;;;;;;;1.17;1.07;;;13.60;99.90;;;;;;5094446;28;20177;-69
2021/10/05 03:51:33;;;;;;;1.00;1.00;;;13.60;99.90;;;;;;5094883;28;20204;-69
2021/10/05 03:53:58;;;;;;;0.73;0.70;;;13.60;99.90;;;;;;5094360;28;20208;-69
2021/10/05 03:56:24;;;;;;;1.20;1.10;;;13.60;99.90;;;;;;5093077;28;20435;-69
2021/10/05 03:58:49;;;;;;;1.33;1.20;;;13.60;99.90;;;;;;5094430;28;20174;-69
2021/10/05 04:01:15;;;;;;;1.30;1.07;;;13.60;99.90;;;;;;5094357;28;20166;-69
2021/10/05 04:03:41;;;;;;;1.67;1.07;;;13.60;99.90;;;;;;5094087;28;20701;-69
2021/10/05 04:06:07;;;;;;;0.80;0.70;;;13.60;99.90;;;;;;5094159;28;20216;-69
2021/10/05 04:08:33;;;;;;;1.03;0.93;;;13.60;99.90;;;;;;5094269;28;20433;-69
2021/10/05 04:10:59;;;;;;;1.07;0.97;;;13.60;99.90;;;;;;5093994;28;20898;-69
2021/10/05 04:13:24;;;;;;;0.60;0.60;;;13.60;99.90;;;;;;5093934;28;20200;-69
2021/10/05 04:15:50;;;;;;;1.63;1.10;;;13.60;99.90;;;;;;5093928;28;20235;-69
2021/10/05 04:18:15;;;;;;;1.40;0.90;;;13.60;99.90;;;;;;5093788;28;20279;-71
2021/10/05 04:20:41;;;;;;;2.17;1.37;;;13.60;99.90;;;;;;5093649;28;20177;-70
2021/10/05 04:23:06;;;;;;;1.20;1.10;;;13.50;99.90;;;;;;5093629;28;20165;-69
2021/10/05 04:25:32;;;;;;;1.00;0.90;;;13.50;99.90;;;;;;5093531;28;20193;-70
2021/10/05 04:27:57;;;;;;;1.13;0.97;;;13.40;99.90;;;;;;5093836;28;20162;-70
2021/10/05 04:30:23;;;;;;;1.20;1.10;;;13.30;99.90;;;;;;5093734;28;20166;-70
2021/10/05 04:32:48;;;;;;;1.30;0.90;;;13.30;99.90;;;;;;5093664;28;20208;-71
2021/10/05 04:35:14;;;;;;;1.27;1.17;;;13.30;99.90;;;;;;5092997;28;20169;-72
2021/10/05 04:37:39;;;;;;;1.10;0.90;;;13.30;99.90;;;;;;5094058;28;20157;-72
2021/10/05 04:40:07;;;;;;;1.77;0.80;;;13.30;99.90;;;;;;5094735;28;20180;-69
2021/10/05 04:42:33;;;;;;;1.00;1.00;;;13.30;99.90;;;;;;5094329;28;20170;-68
2021/10/05 04:44:59;;;;;;;1.47;0.93;;;13.20;99.90;;;;;;5093709;28;20469;-68
2021/10/05 04:47:24;;;;;;;1.53;0.97;;;13.20;99.90;;;;;;5093342;28;20430;-68
2021/10/05 04:49:49;;;;;;;1.33;1.23;;;13.20;99.90;;;;;;5093325;28;20251;-69
2021/10/05 04:52:15;;;;;;;0.97;0.90;;;13.20;99.90;;;;;;5093177;28;20169;-69
2021/10/05 04:54:41;;;;;;;1.70;1.00;;;13.20;99.90;;;;;;5093053;28;20259;-69
2021/10/05 04:57:06;;;;;;;1.07;0.97;;;13.20;99.90;;;;;;5093065;28;20613;-70
2021/10/05 04:59:32;;;;;;;2.17;1.43;;;13.20;99.90;;;;;;5093138;28;20553;-71
2021/10/05 05:01:58;;;;;;;2.20;1.40;;;13.10;99.90;;;;;;5092895;28;20241;-70
2021/10/05 05:04:23;;;;;;;2.77;1.30;;;13.10;99.90;;;;;;5092835;28;20407;-72
2021/10/05 05:06:49;;;;;;;1.80;1.20;;;13.00;99.90;;;;;;5092799;28;20341;-72
2021/10/05 05:09:14;;;;;;;1.77;1.17;;;13.00;99.90;;;;;;5092872;28;20166;-69
2021/10/05 05:11:40;;;;;;;2.77;1.40;;;13.00;99.90;;;;;;5091480;28;20200;-69
2021/10/05 05:14:07;;;;;;;1.40;1.10;;;13.00;99.90;;;;;;5092458;28;20206;-69
2021/10/05 05:16:34;;;;;;;1.80;1.70;;;12.90;99.90;;;;;;5092430;28;20181;-70
2021/10/05 05:19:00;;;;;;;2.30;1.27;;;12.90;99.90;;;;;;5092867;28;20407;-69
2021/10/05 05:21:27;;;;;;;2.10;1.30;;;12.90;99.90;;;;;;5092446;28;20435;-70
2021/10/05 05:23:52;;;;;;;1.80;1.40;;;12.90;99.90;;;;;;5092678;28;20616;-70
2021/10/05 05:26:18;;;;;;;3.00;1.50;;;12.90;99.90;;;;;;5092384;28;20467;-70
2021/10/05 05:28:43;;;;;;;1.23;1.07;;;12.90;99.90;;;;;;5092412;28;20170;-70
2021/10/05 05:31:09;;;;;;;1.50;1.40;;;12.80;99.90;;;;;;5092315;28;20180;-70
2021/10/05 05:33:34;;;;;;;3.33;1.27;;;12.80;99.90;;;;;;5092140;28;20247;-70
2021/10/05 05:36:00;;;;;;;2.63;2.50;;;12.80;99.90;;;;;;5092403;28;20181;-70
2021/10/05 05:38:26;;;;;;;1.70;1.00;;;12.80;99.90;;;;;;5092373;28;20161;-70
2021/10/05 05:40:52;;;;;;;1.93;1.40;;;12.80;99.90;;;;;;5092725;28;20256;-70
2021/10/05 05:43:18;;;;;;;3.07;1.10;;;12.80;99.90;;;;;;5092805;28;20408;-70
2021/10/05 05:45:43;;;;;;;1.40;1.30;;;12.80;99.90;;;;;;5091220;28;20431;-70
2021/10/05 05:48:09;;;;;;;2.23;1.33;;;12.80;99.90;;;;;;5092272;28;20636;-71
2021/10/05 05:50:34;;;;;;;2.00;1.60;;;12.80;99.90;;;;;;5092251;28;20256;-70
2021/10/05 05:53:00;;;;;;;2.33;1.70;;;12.80;99.90;;;;;;5092146;28;20194;-70
2021/10/05 05:55:25;;;;;;;1.50;1.40;;;12.80;99.90;;;;;;5091986;28;20552;-70
2021/10/05 05:57:51;;;;;;;1.17;1.07;;;12.80;99.90;;;;;;5092290;28;20265;-70
2021/10/05 06:00:18;;;;;;;4.40;1.57;;;12.80;99.90;;;;;;5092353;28;20240;-70
2021/10/05 06:02:43;;;;;;;1.73;1.63;;;12.70;99.90;;;;;;5092189;28;20189;-70
2021/10/05 06:05:16;;;;;;;2.60;2.00;;;12.80;99.90;;;;;;5092077;28;20412;-71
2021/10/05 06:07:44;;;;;;;1.47;1.33;;;12.80;99.90;;;;;;5092756;28;20173;-71
2021/10/05 06:10:13;;;;;;;4.67;1.73;;;12.80;99.90;;;;;;5092966;28;20436;-71
2021/10/05 06:12:39;;;;;;;1.90;1.63;;;12.80;99.90;;;;;;5074323;28;20477;-71
2021/10/05 06:15:10;;;;;;;3.60;2.07;;;12.80;99.90;;;;;;5091238;28;20494;-69
2021/10/05 06:17:39;;;;;;;2.40;2.20;;;12.80;99.90;;;;;;5091574;28;20415;-70
2021/10/05 06:20:07;;;;;;;3.37;1.50;;;12.90;99.90;;;;;;5091606;28;20408;-70
2021/10/05 06:22:33;;;;;;;2.50;1.90;;;12.90;99.90;;;;;;5091499;28;20834;-70
2021/10/05 06:24:59;;;;;;;2.30;2.10;;;12.90;99.90;;;;;;5091455;28;20403;-70
2021/10/05 06:27:24;;;;;;;1.97;1.70;;;12.90;99.90;;;;;;5090122;28;20499;-70
2021/10/05 06:29:50;;;;;;;3.40;2.40;;;13.00;99.90;;;;;;5091640;28;20823;-70
2021/10/05 06:32:15;;;;;;;3.77;2.00;;;13.00;99.90;;;;;;5091513;28;20166;-70
2021/10/05 06:34:41;;;;;;;1.70;1.60;;;13.00;99.90;;;;;;5091350;28;20291;-71
2021/10/05 06:37:06;;;;;;;3.63;2.20;;;13.10;99.90;;;;;;5091523;28;20648;-70
2021/10/05 06:39:32;;;;;;;3.03;2.10;;;13.10;99.90;;;;;;5091741;28;20543;-70
2021/10/05 06:41:57;;;;;;;2.17;1.97;;;13.10;99.90;;;;;;5091098;28;20177;-70
2021/10/05 06:44:23;;;;;;;2.73;1.90;;;13.10;99.90;;;;;;5091459;28;20186;-71
2021/10/05 06:46:49;;;;;;;1.97;1.77;;;13.20;99.90;;;;;;5091196;28;20190;-70
2021/10/05 06:49:14;;;;;;;4.13;1.63;;;13.30;99.90;;;;;;5091316;28;20201;-70
2021/10/05 06:51:39;;;;;;;2.53;2.20;;;13.30;99.90;;;;;;5091168;28;20192;-70
2021/10/05 06:54:05;;;;;;;3.47;2.73;;;13.40;99.90;;;;;;5091178;28;20205;-71
2021/10/05 06:56:30;;;;;;;1.90;1.80;;;13.40;99.90;;;;;;5091118;28;20563;-70
2021/10/05 06:58:56;;;;;;;1.63;1.53;;;13.40;99.90;;;;;;5095161;28;20174;-70
2021/10/05 07:01:21;;;;;;;2.50;2.10;;;13.40;99.90;;;;;;5095479;28;20648;-70
2021/10/05 07:03:47;;;;;;;2.90;2.33;;;13.40;99.90;;;;;;5095183;28;20180;-70
2021/10/05 07:06:12;;;;;;;4.60;2.50;;;13.40;99.90;;;;;;5095448;28;20209;-70
2021/10/05 07:08:39;;;;;;;2.83;2.13;;;13.50;99.90;;;;;;5095712;28;20166;-70
2021/10/05 07:11:05;;;;;;;3.13;2.43;;;13.50;99.90;;;;;;5095531;28;20173;-70
2021/10/05 07:13:30;;;;;;;4.10;2.33;;;13.50;99.90;;;;;;5095338;28;20462;-70
2021/10/05 07:15:56;;;;;;;2.20;2.00;;;13.50;99.90;;;;;;5095318;28;20186;-70
2021/10/05 07:18:21;;;;;;;3.10;2.50;;;13.50;99.90;;;;;;5091281;28;20182;-70
2021/10/05 07:20:47;;;;;;;3.80;2.83;;;13.60;99.90;;;;;;5096283;28;20722;-70
2021/10/05 07:23:12;;;;;;;3.73;2.80;;;13.60;99.90;;;;;;5097696;28;20197;-70
2021/10/05 07:25:38;;;;;;;2.43;2.07;;;13.60;99.90;;;;;;5097506;28;20647;-70
2021/10/05 07:28:03;;;;;;;3.23;2.90;;;13.60;99.90;;;;;;5075091;28;20216;-70
2021/10/05 07:30:29;;;;;;;3.50;3.20;;;13.60;99.90;;;;;;5075121;28;20166;-70
2021/10/05 07:33:03;;;;;;;4.10;2.97;;;13.60;99.90;;;;;;5074738;28;20277;-71
2021/10/05 07:35:30;;;;;;;3.97;2.40;;;13.70;99.90;;;;;;5090208;28;20177;-72
2021/10/05 07:37:56;;;;;;;3.17;2.87;;;13.70;99.90;;;;;;5095034;28;20490;-74
2021/10/05 07:40:22;;;;;;;2.90;2.60;;;13.70;99.90;;;;;;5095372;28;20922;-71
2021/10/05 07:42:49;;;;;;;4.87;3.20;;;13.70;99.90;;;;;;5081486;28;20714;-71
2021/10/05 07:45:14;;;;;;;3.50;2.93;;;13.80;99.90;;;;;;5074563;28;20408;-72
2021/10/05 07:47:40;;;;;;;2.97;2.67;;;13.80;99.90;;;;;;5074757;28;20400;-70
2021/10/05 07:50:06;;;;;;;3.83;3.43;;;13.80;99.90;;;;;;5074629;28;20163;-70
2021/10/05 07:52:32;;;;;;;4.80;3.83;;;13.80;99.90;;;;;;5089795;28;20174;-70
2021/10/05 07:54:57;;;;;;;4.13;3.73;;;13.80;99.90;;;;;;5094565;28;20218;-70
2021/10/05 07:57:23;;;;;;;2.53;2.33;;;13.80;99.90;;;;;;5094767;28;20415;-70
2021/10/05 07:59:50;;;;;;;4.27;3.50;;;13.80;99.90;;;;;;5094862;28;20170;-70
2021/10/05 08:02:15;;;;;;;3.50;3.17;;;13.80;99.90;;;;;;5094640;28;20197;-70
2021/10/05 08:04:41;;;;;;;4.40;3.50;;;13.80;99.90;;;;;;5093930;28;20512;-70
2021/10/05 08:07:06;;;;;;;6.13;4.30;;;13.80;99.90;;;;;;5079181;28;20314;-70
2021/10/05 08:09:32;;;;;;;6.37;3.83;;;13.80;99.90;;;;;;5073234;28;20936;-70
2021/10/05 08:11:57;;;;;;;5.40;4.20;;;13.80;99.90;;;;;;5074225;28;20189;-70
2021/10/05 08:14:23;;;;;;;5.50;4.80;;;13.80;99.90;;;;;;5074478;28;20288;-70
2021/10/05 08:16:48;;;;;;;5.70;3.97;;;13.90;99.90;;;;;;5073989;28;20677;-70
2021/10/05 08:19:14;;;;;;;4.30;3.80;;;13.90;99.90;;;;;;5079823;28;20170;-70
2021/10/05 08:21:40;;;;;;;6.27;5.10;;;13.90;99.90;;;;;;5094366;28;20208;-70
2021/10/05 08:24:05;;;;;;;5.87;4.73;;;14.00;99.90;;;;;;5094136;28;20487;-70
2021/10/05 08:26:32;;;;;;;5.80;4.23;;;14.00;99.90;;;;;;5092161;28;20545;-70
2021/10/05 08:28:58;;;;;;;6.20;5.03;;;14.00;99.90;;;;;;5090769;28;20248;-70
2021/10/05 08:31:23;;;;;;;10.53;4.60;;;14.00;99.90;;;;;;5094061;28;20502;-70
2021/10/05 08:33:49;;;;;;;7.83;5.73;;;14.00;99.90;;;;;;5094011;28;20246;-70
2021/10/05 08:36:17;;;;;;;7.73;5.53;;;14.10;99.90;;;;;;5078924;28;20684;-70
2021/10/05 08:38:42;;;;;;;5.90;4.67;;;14.10;99.90;;;;;;5073654;28;20162;-71
2021/10/05 08:41:08;;;;;;;6.50;5.20;;;14.10;99.90;;;;;;5073709;28;20432;-71
2021/10/05 08:43:34;;;;;;;9.30;5.70;;;14.20;99.90;;;;;;5078355;28;20166;-71
2021/10/05 08:46:01;;;;;;;6.67;5.80;;;14.20;99.90;;;;;;5093901;28;20428;-71
2021/10/05 08:48:34;;;;;;;8.23;5.43;;;14.10;99.90;;;;;;5093844;28;20198;-71
2021/10/05 08:51:01;;;;;;;11.93;6.57;;;14.10;99.90;;;;;;5093616;28;20768;-71
2021/10/05 08:53:28;;;;;;;8.00;6.47;;;14.20;99.90;;;;;;5093325;28;20443;-70
2021/10/05 08:55:54;;;;;;;10.30;6.60;;;14.10;99.90;;;;;;5093694;28;20505;-70
2021/10/05 08:58:20;;;;;;;9.60;6.70;;;14.00;99.90;;;;;;5093669;28;20455;-70
2021/10/05 09:00:46;;;;;;;8.93;5.83;;;14.00;99.90;;;;;;5093461;28;20460;-70
2021/10/05 09:03:21;;;;;;;7.17;6.47;;;14.10;99.90;;;;;;5093482;28;20183;-70
2021/10/05 09:05:53;;;;;;;10.43;7.07;;;14.10;99.90;;;;;;5093331;28;20427;-71
2021/10/05 09:08:32;;;;;;;14.37;6.73;;;14.10;99.90;;;;;;5093423;28;20905;-71
2021/10/05 09:11:01;;;;;;;10.17;7.30;;;14.10;99.90;;;;;;5093453;28;20449;-71
2021/10/05 09:13:39;;;;;;;11.63;7.10;;;14.20;99.90;;;;;;5093341;28;20447;-72
2021/10/05 09:16:26;;;;;;;8.30;5.57;;;14.20;99.90;;;;;;5091807;28;20428;-72
2021/10/05 09:19:09;;;;;;;8.33;6.23;;;14.20;99.90;;;;;;5093371;28;20419;-71
2021/10/05 09:21:38;;;;;;;10.60;6.77;;;14.30;99.90;;;;;;5092998;28;20395;-71
2021/10/05 09:24:11;;;;;;;8.30;7.07;;;14.30;99.90;;;;;;5092956;28;20403;-72
2021/10/05 09:26:59;;;;;;;9.80;7.13;;;14.20;99.90;;;;;;5093975;28;20985;-72
2021/10/05 09:29:34;;;;;;;10.47;7.40;;;14.20;99.90;;;;;;5092825;28;20446;-73
2021/10/05 09:32:05;;;;;;;10.60;8.57;;;14.30;99.90;;;;;;5093080;28;20956;-72
2021/10/05 09:34:50;;;;;;;11.03;8.13;;;14.30;99.90;;;;;;5089961;28;20538;-73
2021/10/05 09:37:28;;;;;;;11.40;7.37;;;14.30;99.90;;;;;;5071288;28;20436;-71
2021/10/05 09:40:00;;;;;;;12.87;8.70;;;14.30;99.90;;;;;;5072345;28;20759;-72
2021/10/05 09:42:37;;;;;;;10.27;7.33;;;14.40;99.90;;;;;;5072383;28;20993;-72
2021/10/05 09:45:05;;;;;;;11.47;6.83;;;14.40;99.90;;;;;;5072363;28;20417;-72
2021/10/05 09:47:40;;;;;;;12.33;6.60;;;14.40;99.90;;;;;;5081412;28;20894;-72
2021/10/05 09:50:24;;;;;;;11.53;7.13;;;14.40;99.90;;;;;;5092834;28;20411;-72
2021/10/05 09:52:55;;;;;;;10.60;7.90;;;14.40;99.90;;;;;;5092536;28;20487;-71
2021/10/05 09:55:23;;;;;;;13.57;7.87;;;14.40;99.90;;;;;;5092306;28;20501;-72
2021/10/05 09:57:53;;;;;;;14.00;8.90;;;14.50;99.90;;;;;;5092127;28;20416;-71
2021/10/05 10:00:24;;;;;;;10.97;7.93;;;14.50;99.90;;;;;;5091131;28;20413;-72
2021/10/05 10:02:51;;;;;;;10.50;7.90;;;14.50;99.90;;;;;;5092262;28;20914;-72
2021/10/05 10:05:20;;;;;;;11.70;8.60;;;14.50;99.90;;;;;;5092449;28;20420;-72
2021/10/05 10:07:47;;;;;;;11.37;9.17;;;14.50;99.90;;;;;;5092377;28;20431;-72
2021/10/05 10:10:23;;;;;;;13.00;9.67;;;14.50;99.90;;;;;;5092398;28;20933;-72
2021/10/05 10:12:56;;;;;;;12.33;7.57;;;14.50;99.90;;;;;;5092124;28;20455;-72
2021/10/05 10:15:28;;;;;;;11.87;8.87;;;14.50;99.90;;;;;;5091168;28;20991;-73
2021/10/05 10:18:16;;;;;;;14.13;9.20;;;14.50;99.90;;;;;;5092121;28;20428;-71
2021/10/05 10:20:53;;;;;;;9.43;8.37;;;14.50;99.90;;;;;;5092058;28;20420;-71
2021/10/05 10:23:21;;;;;;;13.00;9.93;;;14.60;99.90;;;;;;5092461;28;20415;-72
2021/10/05 10:26:04;;;;;;;14.77;9.73;;;14.60;99.90;;;;;;5091837;28;20427;-71
2021/10/05 10:29:04;;;;;;;17.57;11.10;;;14.60;99.90;;;;;;5092231;28;20408;-72
2021/10/05 10:31:39;;;;;;;17.57;10.80;;;14.60;99.90;;;;;;5091431;28;20475;-75
2021/10/05 10:34:06;;;;;;;13.60;9.67;;;14.60;99.90;;;;;;5091905;28;20447;-73
2021/10/05 10:36:42;;;;;;;14.50;9.47;;;14.70;99.90;;;;;;5072438;28;20428;-71
2021/10/05 10:39:17;;;;;;;18.33;9.60;;;14.70;99.90;;;;;;5071879;28;20553;-72
2021/10/05 10:41:55;;;;;;;13.27;10.20;;;14.70;99.90;;;;;;5070229;28;20417;-72
2021/10/05 10:44:39;;;;;;;11.67;8.97;;;14.70;99.90;;;;;;5071634;28;20938;-72
2021/10/05 10:47:06;;;;;;;16.20;9.87;;;14.70;99.90;;;;;;5071691;28;20479;-72
2021/10/05 10:49:31;;;;;;;14.63;10.37;;;14.70;99.90;;;;;;5071499;28;20785;-72
2021/10/05 10:52:00;;;;;;;16.13;10.33;;;14.80;99.90;;;;;;5071703;28;20419;-72
2021/10/05 10:54:26;;;;;;;17.30;11.80;;;14.80;99.90;;;;;;5072147;28;20206;-71
2021/10/05 10:57:08;;;;;;;21.37;11.63;;;14.80;99.90;;;;;;5071614;28;20432;-72
2021/10/05 10:59:34;;;;;;;14.10;10.07;;;14.80;99.90;;;;;;5071874;28;20933;-71
2021/10/05 11:02:02;;;;;;;14.20;9.93;;;14.90;99.90;;;;;;5076516;28;20495;-71
2021/10/05 11:04:28;;;;;;;15.97;12.00;;;14.90;99.90;;;;;;5090342;28;20413;-72
2021/10/05 11:06:58;;;;;;;16.63;11.00;;;14.80;99.90;;;;;;5091486;28;20796;-72
2021/10/05 11:09:35;;;;;;;17.13;10.57;;;14.80;99.90;;;;;;5091705;28;20174;-72
2021/10/05 11:12:06;;;;;;;14.90;11.03;;;14.80;99.90;;;;;;5090313;28;20410;-71
2021/10/05 11:14:44;;;;;;;15.63;11.10;;;14.80;99.90;;;;;;5091547;28;20451;-71
2021/10/05 11:17:11;;;;;;;17.53;11.00;;;14.80;99.90;;;;;;5091202;28;20858;-72
2021/10/05 11:19:39;;;;;;;16.47;12.47;;;14.80;99.90;;;;;;5091383;28;20414;-72
2021/10/05 11:22:12;;;;;;;16.23;11.30;;;14.80;99.90;;;;;;5089821;28;20408;-72
2021/10/05 11:24:44;;;;;;;19.73;11.70;;;14.80;99.90;;;;;;5091556;28;20409;-72
2021/10/05 11:27:17;;;;;;;16.17;12.80;;;14.80;99.90;;;;;;5091585;28;20910;-72
2021/10/05 11:30:19;;;;;;;17.07;12.27;;;14.90;99.90;;;;;;5090074;28;20404;-72
2021/10/05 11:32:52;;;;;;;20.73;11.27;;;14.80;99.90;;;;;;5091310;28;20451;-72
2021/10/05 11:35:25;;;;;;;21.17;12.63;;;14.80;99.90;;;;;;5082172;28;20447;-72
2021/10/05 11:37:55;;;;;;;17.00;10.83;;;14.80;99.90;;;;;;5071232;28;20389;-72
2021/10/05 11:40:27;;;;;;;16.50;12.70;;;14.90;99.90;;;;;;5079004;28;20404;-72
2021/10/05 11:43:04;;;;;;;15.33;11.63;;;14.90;99.90;;;;;;5091670;28;20526;-71
2021/10/05 11:45:33;;;;;;;16.73;12.37;;;15.00;99.90;;;;;;5077583;28;20431;-71
2021/10/05 11:48:04;;;;;;;24.80;12.60;;;15.00;99.90;;;;;;5094997;28;20408;-71
2021/10/05 11:50:40;;;;;;;16.53;11.40;;;15.10;99.90;;;;;;5093667;28;20427;-71
2021/10/05 11:53:06;;;;;;;17.60;11.23;;;15.10;99.90;;;;;;5093309;28;20451;-71
2021/10/05 11:55:37;;;;;;;18.27;9.77;;;15.20;99.90;;;;;;5094635;28;20458;-72
2021/10/05 11:58:12;;;;;;;17.27;10.53;;;15.20;99.90;;;;;;5095184;28;20516;-71
2021/10/05 12:00:46;;;;;;;22.13;11.10;;;15.30;99.90;;;;;;5095119;28;20437;-70
2021/10/05 12:03:14;;;;;;;15.90;10.90;;;15.30;99.90;;;;;;5094815;28;20404;-70
2021/10/05 12:05:51;;;;;;;17.30;12.70;;;15.30;99.90;;;;;;5094522;28;20477;-71
2021/10/05 12:08:23;;;;;;;17.37;10.50;;;15.30;99.90;;;;;;5094869;28;20407;-71
2021/10/05 12:11:00;;;;;;;17.40;11.90;;;15.30;99.90;;;;;;5094619;28;20465;-71
2021/10/05 12:13:30;;;;;;;16.80;11.70;;;15.30;99.90;;;;;;5094222;28;20474;-71
2021/10/05 12:15:56;;;;;;;15.57;10.53;;;15.30;99.90;;;;;;5094328;28;20628;-71
2021/10/05 12:18:24;;;;;;;24.50;12.40;;;15.40;99.90;;;;;;5094180;28;20462;-71
2021/10/05 12:21:14;;;;;;;15.27;11.60;;;15.30;99.90;;;;;;5057268;28;20171;-70
2021/10/05 12:24:06;;;;;;;17.00;10.47;;;15.30;99.90;;;;;;5074069;28;20405;-71
2021/10/05 12:26:34;;;;;;;17.23;11.27;;;15.30;99.90;;;;;;5077303;28;20523;-71
2021/10/05 12:29:06;;;;;;;17.60;10.73;;;15.30;99.90;;;;;;5093000;28;20504;-72
2021/10/05 12:31:53;;;;;;;17.43;12.47;;;15.30;99.90;;;;;;5094121;28;20408;-72
2021/10/05 12:34:19;;;;;;;19.93;10.87;;;15.30;99.90;;;;;;5092885;28;20471;-72
2021/10/05 12:36:48;;;;;;;17.80;10.37;;;15.20;99.90;;;;;;5073990;28;20913;-72
2021/10/05 12:39:20;;;;;;;18.10;12.23;;;15.20;99.90;;;;;;5073644;28;20401;-71
2021/10/05 12:42:01;;;;;;;15.40;10.50;;;15.10;99.90;;;;;;5092205;28;20405;-71
2021/10/05 12:44:35;;;;;;;19.17;11.90;;;15.10;99.90;;;;;;5093736;28;20454;-71
2021/10/05 12:47:09;;;;;;;13.47;10.43;;;15.20;99.90;;;;;;5094045;28;20429;-72
2021/10/05 12:49:43;;;;;;;19.70;11.43;;;15.20;99.90;;;;;;5093623;28;20898;-71